createdAt,value
2017-09-22T00:00:45.393Z,0
2017-09-22T00:01:46.057Z,0
2017-09-22T00:02:45.734Z,0
2017-09-22T00:03:45.403Z,0
2017-09-22T00:04:45.357Z,0
2017-09-22T00:05:45.343Z,0
2017-09-22T00:06:45.396Z,0
2017-09-22T00:07:45.027Z,0
2017-09-22T00:08:45.976Z,0
2017-09-22T00:09:45.644Z,0
2017-09-22T00:10:45.651Z,0
2017-09-22T00:11:45.525Z,0
2017-09-22T00:12:45.648Z,0
2017-09-22T00:13:45.273Z,0
2017-09-22T00:14:45.251Z,0
2017-09-22T00:15:45.261Z,0
2017-09-22T00:16:45.904Z,0
2017-09-22T00:17:45.230Z,0
2017-09-22T00:18:45.247Z,0
2017-09-22T00:19:45.537Z,0
2017-09-22T00:20:45.198Z,0
2017-09-22T00:21:44.856Z,0
2017-09-22T00:22:45.869Z,0
2017-09-22T00:23:45.603Z,0
2017-09-22T00:24:45.811Z,0
2017-09-22T00:25:45.493Z,0
2017-09-22T00:26:44.821Z,0
2017-09-22T00:27:45.468Z,0
2017-09-22T00:28:46.115Z,0
2017-09-22T00:29:45.428Z,0
2017-09-22T00:30:45.414Z,0
2017-09-22T00:31:44.774Z,0
2017-09-22T00:32:45.400Z,0
2017-09-22T00:33:45.060Z,0
2017-09-22T00:34:45.080Z,0
2017-09-22T00:35:45.033Z,0
2017-09-22T00:36:45.031Z,0
2017-09-22T00:37:45.016Z,0
2017-09-22T00:38:45.365Z,0
2017-09-22T00:39:45.006Z,0
2017-09-22T00:40:44.985Z,0
2017-09-22T00:41:45.301Z,0
2017-09-22T00:42:44.969Z,0
2017-09-22T00:43:44.625Z,0
2017-09-22T00:44:44.951Z,0
2017-09-22T00:45:45.280Z,0
2017-09-22T00:46:44.994Z,0
2017-09-22T00:47:45.244Z,0
2017-09-22T00:48:44.930Z,0
2017-09-22T00:49:44.914Z,0
2017-09-22T00:50:45.227Z,0
2017-09-22T00:51:44.877Z,0
2017-09-22T00:52:44.861Z,0
2017-09-22T00:53:44.540Z,0
2017-09-22T00:54:45.490Z,0
2017-09-22T00:55:44.840Z,0
2017-09-22T00:56:44.814Z,0
2017-09-22T00:57:44.841Z,0
2017-09-22T00:58:44.914Z,0
2017-09-22T00:59:45.728Z,0
2017-09-22T01:00:45.108Z,0
2017-09-22T01:01:44.466Z,0
2017-09-22T01:02:45.142Z,0
2017-09-22T01:03:44.782Z,0
2017-09-22T01:04:45.067Z,0
2017-09-22T01:05:45.425Z,0
2017-09-22T01:06:45.069Z,0
2017-09-22T01:07:44.379Z,0
2017-09-22T01:08:45.342Z,0
2017-09-22T01:09:45.031Z,0
2017-09-22T01:10:45.013Z,0
2017-09-22T01:11:44.679Z,0
2017-09-22T01:12:44.650Z,0
2017-09-22T01:13:44.638Z,0
2017-09-22T01:14:44.967Z,0
2017-09-22T01:15:44.950Z,0
2017-09-22T01:16:44.690Z,0
2017-09-22T01:17:45.057Z,0
2017-09-22T01:18:44.987Z,0
2017-09-22T01:19:44.946Z,0
2017-09-22T01:20:45.763Z,0
2017-09-22T01:21:45.851Z,0
2017-09-22T01:22:44.742Z,0
2017-09-22T01:23:44.973Z,0
2017-09-22T01:24:45.239Z,0
2017-09-22T01:25:44.835Z,0
2017-09-22T01:26:44.993Z,0
2017-09-22T01:27:44.774Z,0
2017-09-22T01:28:44.966Z,0
2017-09-22T01:29:45.648Z,0
2017-09-22T01:30:44.944Z,0
2017-09-22T01:31:44.238Z,0
2017-09-22T01:32:44.497Z,0
2017-09-22T01:33:44.517Z,0
2017-09-22T01:34:45.207Z,0
2017-09-22T01:35:44.832Z,0
2017-09-22T01:36:45.497Z,0
2017-09-22T01:37:44.797Z,0
2017-09-22T01:38:44.818Z,0
2017-09-22T01:39:45.040Z,0
2017-09-22T01:40:45.118Z,0
2017-09-22T01:41:45.134Z,0
2017-09-22T01:42:44.511Z,0
2017-09-22T01:43:44.960Z,0
2017-09-22T01:44:44.448Z,0
2017-09-22T01:45:44.408Z,0
2017-09-22T01:46:44.344Z,0
2017-09-22T01:47:45.082Z,0
2017-09-22T01:48:43.997Z,0
2017-09-22T01:49:44.627Z,0
2017-09-22T01:50:45.026Z,0
2017-09-22T01:51:44.550Z,0
2017-09-22T01:52:44.049Z,0
2017-09-22T01:53:44.129Z,0
2017-09-22T01:54:44.056Z,0
2017-09-22T01:55:44.724Z,0
2017-09-22T01:56:44.970Z,0
2017-09-22T01:57:43.921Z,0
2017-09-22T01:58:44.638Z,0
2017-09-22T01:59:44.748Z,0
2017-09-22T02:00:44.318Z,0
2017-09-22T02:01:44.294Z,0
2017-09-22T02:02:43.878Z,0
2017-09-22T02:03:44.622Z,0
2017-09-22T02:04:44.295Z,0
2017-09-22T02:05:43.913Z,0
2017-09-22T02:06:44.256Z,0
2017-09-22T02:07:43.894Z,0
2017-09-22T02:08:44.044Z,0
2017-09-22T02:09:44.261Z,0
2017-09-22T02:10:44.249Z,0
2017-09-22T02:11:44.331Z,0
2017-09-22T02:12:44.621Z,0
2017-09-22T02:13:44.606Z,0
2017-09-22T02:14:44.578Z,0
2017-09-22T02:15:44.255Z,0
2017-09-22T02:16:44.270Z,0
2017-09-22T02:17:44.697Z,0
2017-09-22T02:18:44.634Z,0
2017-09-22T02:19:45.002Z,0
2017-09-22T02:20:44.832Z,0
2017-09-22T02:21:44.806Z,0
2017-09-22T02:22:44.181Z,0
2017-09-22T02:23:44.051Z,0
2017-09-22T02:24:44.517Z,0
2017-09-22T02:25:44.093Z,0
2017-09-22T02:26:43.969Z,0
2017-09-22T02:27:43.575Z,0
2017-09-22T02:28:43.518Z,0
2017-09-22T02:29:44.481Z,0
2017-09-22T02:30:44.151Z,0
2017-09-22T02:31:43.807Z,0
2017-09-22T02:32:43.799Z,0
2017-09-22T02:33:43.467Z,0
2017-09-22T02:34:43.777Z,0
2017-09-22T02:35:44.116Z,0
2017-09-22T02:36:43.467Z,0
2017-09-22T02:37:43.498Z,0
2017-09-22T02:38:44.091Z,0
2017-09-22T02:39:44.389Z,0
2017-09-22T02:40:43.713Z,0
2017-09-22T02:41:43.732Z,0
2017-09-22T02:42:43.695Z,0
2017-09-22T02:43:44.043Z,0
2017-09-22T02:44:44.360Z,0
2017-09-22T02:45:44.362Z,0
2017-09-22T02:46:44.350Z,0
2017-09-22T02:47:50.245Z,0
2017-09-22T02:48:43.961Z,0
2017-09-22T02:49:43.295Z,0
2017-09-22T02:50:43.947Z,0
2017-09-22T02:51:44.278Z,0
2017-09-22T02:52:43.610Z,0
2017-09-22T02:53:43.636Z,0
2017-09-22T02:54:43.903Z,0
2017-09-22T02:55:43.557Z,0
2017-09-22T02:56:43.880Z,0
2017-09-22T02:57:43.547Z,0
2017-09-22T02:58:43.541Z,0
2017-09-22T02:59:44.200Z,0
2017-09-22T03:00:43.840Z,0
2017-09-22T03:01:43.557Z,0
2017-09-22T03:02:43.822Z,0
2017-09-22T03:03:43.482Z,0
2017-09-22T03:04:43.470Z,0
2017-09-22T03:05:43.479Z,0
2017-09-22T03:06:43.121Z,0
2017-09-22T03:07:43.446Z,0
2017-09-22T03:08:43.431Z,0
2017-09-22T03:09:43.135Z,0
2017-09-22T03:10:44.084Z,0
2017-09-22T03:11:44.052Z,0
2017-09-22T03:12:43.388Z,0
2017-09-22T03:13:44.069Z,0
2017-09-22T03:14:43.071Z,0
2017-09-22T03:15:43.682Z,0
2017-09-22T03:16:43.345Z,0
2017-09-22T03:17:43.354Z,0
2017-09-22T03:18:43.095Z,0
2017-09-22T03:19:43.672Z,0
2017-09-22T03:20:43.328Z,0
2017-09-22T03:21:43.294Z,0
2017-09-22T03:22:43.285Z,0
2017-09-22T03:23:42.971Z,0
2017-09-22T03:24:43.586Z,0
2017-09-22T03:25:43.599Z,0
2017-09-22T03:26:43.266Z,0
2017-09-22T03:27:43.603Z,0
2017-09-22T03:28:43.556Z,0
2017-09-22T03:29:43.222Z,0
2017-09-22T03:30:42.923Z,0
2017-09-22T03:31:43.400Z,0
2017-09-22T03:32:42.920Z,0
2017-09-22T03:33:43.174Z,0
2017-09-22T03:34:42.841Z,0
2017-09-22T03:35:42.830Z,0
2017-09-22T03:36:44.145Z,0
2017-09-22T03:37:43.158Z,0
2017-09-22T03:38:43.789Z,0
2017-09-22T03:39:42.783Z,0
2017-09-22T03:40:43.100Z,0
2017-09-22T03:41:43.100Z,0
2017-09-22T03:42:43.094Z,0
2017-09-22T03:43:43.411Z,0
2017-09-22T03:44:43.388Z,0
2017-09-22T03:45:43.069Z,0
2017-09-22T03:46:43.381Z,0
2017-09-22T03:47:43.033Z,0
2017-09-22T03:48:43.674Z,0
2017-09-22T03:49:43.350Z,0
2017-09-22T03:50:43.004Z,0
2017-09-22T03:51:42.986Z,0
2017-09-22T03:52:42.656Z,0
2017-09-22T03:53:42.968Z,0
2017-09-22T03:54:42.961Z,0
2017-09-22T03:55:42.979Z,0
2017-09-22T03:56:43.286Z,0
2017-09-22T03:57:43.263Z,0
2017-09-22T03:58:42.591Z,0
2017-09-22T03:59:43.930Z,0
2017-09-22T04:00:43.227Z,0
2017-09-22T04:01:42.913Z,0
2017-09-22T04:02:43.205Z,0
2017-09-22T04:03:42.537Z,0
2017-09-22T04:04:42.530Z,0
2017-09-22T04:05:42.528Z,0
2017-09-22T04:06:42.926Z,0
2017-09-22T04:07:42.836Z,0
2017-09-22T04:08:42.815Z,0
2017-09-22T04:09:42.485Z,0
2017-09-22T04:10:42.791Z,0
2017-09-22T04:11:42.799Z,0
2017-09-22T04:12:43.481Z,0
2017-09-22T04:13:42.444Z,0
2017-09-22T04:14:43.081Z,0
2017-09-22T04:15:43.135Z,0
2017-09-22T04:16:42.730Z,0
2017-09-22T04:17:42.724Z,0
2017-09-22T04:18:43.056Z,0
2017-09-22T04:19:42.386Z,0
2017-09-22T04:20:42.378Z,0
2017-09-22T04:21:43.009Z,0
2017-09-22T04:22:42.683Z,0
2017-09-22T04:23:43.331Z,0
2017-09-22T04:24:42.674Z,0
2017-09-22T04:25:42.658Z,0
2017-09-22T04:26:42.681Z,0
2017-09-22T04:27:42.957Z,0
2017-09-22T04:28:42.646Z,0
2017-09-22T04:29:42.924Z,0
2017-09-22T04:30:43.257Z,0
2017-09-22T04:31:42.599Z,0
2017-09-22T04:32:42.564Z,0
2017-09-22T04:33:42.898Z,0
2017-09-22T04:34:42.215Z,0
2017-09-22T04:35:42.553Z,0
2017-09-22T04:36:43.517Z,0
2017-09-22T04:37:43.206Z,0
2017-09-22T04:38:42.504Z,0
2017-09-22T04:39:42.507Z,0
2017-09-22T04:40:42.148Z,0
2017-09-22T04:41:42.806Z,0
2017-09-22T04:42:42.471Z,0
2017-09-22T04:43:42.116Z,0
2017-09-22T04:44:42.451Z,0
2017-09-22T04:45:42.451Z,0
2017-09-22T04:46:42.432Z,0
2017-09-22T04:47:43.091Z,0
2017-09-22T04:48:43.401Z,0
2017-09-22T04:49:42.050Z,0
2017-09-22T04:50:42.044Z,0
2017-09-22T04:51:42.032Z,0
2017-09-22T04:52:43.010Z,0
2017-09-22T04:53:43.001Z,0
2017-09-22T04:54:42.996Z,5
2017-09-22T04:55:42.363Z,5
2017-09-22T04:56:41.987Z,5
2017-09-22T04:57:42.002Z,5
2017-09-22T04:58:42.962Z,5
2017-09-22T04:59:42.281Z,5
2017-09-22T05:00:42.265Z,5
2017-09-22T05:01:42.252Z,5
2017-09-22T05:02:42.894Z,5
2017-09-22T05:03:41.908Z,5
2017-09-22T05:04:42.233Z,5
2017-09-22T05:05:42.870Z,10
2017-09-22T05:06:42.198Z,10
2017-09-22T05:07:42.208Z,10
2017-09-22T05:08:42.509Z,10
2017-09-22T05:09:42.177Z,10
2017-09-22T05:10:42.172Z,10
2017-09-22T05:11:42.473Z,10
2017-09-22T05:12:42.172Z,15
2017-09-22T05:13:41.836Z,15
2017-09-22T05:14:42.474Z,15
2017-09-22T05:15:42.102Z,15
2017-09-22T05:16:42.104Z,15
2017-09-22T05:17:42.085Z,20
2017-09-22T05:18:43.082Z,20
2017-09-22T05:19:42.097Z,20
2017-09-22T05:20:41.725Z,20
2017-09-22T05:21:42.036Z,20
2017-09-22T05:22:42.357Z,20
2017-09-22T05:23:42.019Z,20
2017-09-22T05:24:42.337Z,20
2017-09-22T05:25:42.016Z,20
2017-09-22T05:26:41.657Z,25
2017-09-22T05:27:51.097Z,25
2017-09-22T05:28:41.978Z,25
2017-09-22T05:29:42.296Z,25
2017-09-22T05:30:42.273Z,30
2017-09-22T05:31:42.265Z,30
2017-09-22T05:32:41.926Z,30
2017-09-22T05:33:41.596Z,30
2017-09-22T05:34:42.561Z,30
2017-09-22T05:35:42.551Z,30
2017-09-22T05:36:42.212Z,30
2017-09-22T05:37:41.568Z,35
2017-09-22T05:38:41.886Z,35
2017-09-22T05:39:42.177Z,35
2017-09-22T05:40:42.164Z,35
2017-09-22T05:41:41.861Z,35
2017-09-22T05:42:41.838Z,35
2017-09-22T05:43:41.480Z,35
2017-09-22T05:44:41.467Z,40
2017-09-22T05:45:41.787Z,40
2017-09-22T05:46:42.103Z,40
2017-09-22T05:47:41.772Z,45
2017-09-22T05:48:42.113Z,45
2017-09-22T05:49:41.771Z,45
2017-09-22T05:50:42.431Z,50
2017-09-22T05:51:41.724Z,50
2017-09-22T05:52:42.073Z,55
2017-09-22T05:53:41.375Z,55
2017-09-22T05:54:41.399Z,55
2017-09-22T05:55:42.023Z,60
2017-09-22T05:56:42.339Z,60
2017-09-22T05:57:41.991Z,60
2017-09-22T05:58:41.981Z,65
2017-09-22T05:59:42.300Z,65
2017-09-22T06:00:41.656Z,70
2017-09-22T06:01:41.300Z,75
2017-09-22T06:02:41.611Z,75
2017-09-22T06:03:41.620Z,75
2017-09-22T06:04:41.265Z,75
2017-09-22T06:05:41.583Z,75
2017-09-22T06:06:41.570Z,80
2017-09-22T06:07:42.554Z,80
2017-09-22T06:08:41.244Z,80
2017-09-22T06:09:41.891Z,85
2017-09-22T06:10:41.545Z,85
2017-09-22T06:11:41.213Z,90
2017-09-22T06:12:41.853Z,90
2017-09-22T06:13:41.506Z,95
2017-09-22T06:14:41.508Z,100
2017-09-22T06:15:41.826Z,100
2017-09-22T06:16:41.144Z,105
2017-09-22T06:17:41.154Z,105
2017-09-22T06:18:41.483Z,110
2017-09-22T06:19:41.458Z,110
2017-09-22T06:20:41.434Z,110
2017-09-22T06:21:41.106Z,110
2017-09-22T06:22:42.066Z,115
2017-09-22T06:23:41.417Z,115
2017-09-22T06:24:41.417Z,115
2017-09-22T06:25:41.384Z,120
2017-09-22T06:26:41.375Z,120
2017-09-22T06:27:41.718Z,120
2017-09-22T06:28:41.391Z,125
2017-09-22T06:29:41.674Z,125
2017-09-22T06:30:41.024Z,130
2017-09-22T06:31:41.355Z,130
2017-09-22T06:32:41.339Z,135
2017-09-22T06:33:41.321Z,135
2017-09-22T06:34:41.637Z,140
2017-09-22T06:35:41.634Z,140
2017-09-22T06:36:40.964Z,140
2017-09-22T06:37:41.278Z,140
2017-09-22T06:38:40.934Z,140
2017-09-22T06:39:40.924Z,140
2017-09-22T06:40:41.246Z,145
2017-09-22T06:41:41.575Z,145
2017-09-22T06:42:41.563Z,145
2017-09-22T06:43:41.893Z,145
2017-09-22T06:44:41.218Z,145
2017-09-22T06:45:42.237Z,145
2017-09-22T06:46:41.190Z,150
2017-09-22T06:47:40.863Z,155
2017-09-22T06:48:41.188Z,155
2017-09-22T06:49:41.516Z,155
2017-09-22T06:50:41.173Z,160
2017-09-22T06:51:41.813Z,155
2017-09-22T06:52:40.810Z,155
2017-09-22T06:53:41.476Z,155
2017-09-22T06:54:41.815Z,155
2017-09-22T06:55:41.112Z,155
2017-09-22T06:56:40.777Z,150
2017-09-22T06:57:40.793Z,150
2017-09-22T06:58:41.090Z,145
2017-09-22T06:59:41.084Z,145
2017-09-22T07:00:41.756Z,140
2017-09-22T07:01:41.731Z,135
2017-09-22T07:02:41.390Z,130
2017-09-22T07:03:40.759Z,125
2017-09-22T07:04:40.709Z,125
2017-09-22T07:05:41.359Z,120
2017-09-22T07:06:41.036Z,120
2017-09-22T07:07:41.341Z,120
2017-09-22T07:08:41.669Z,125
2017-09-22T07:09:41.350Z,130
2017-09-22T07:10:41.331Z,130
2017-09-22T07:11:40.984Z,130
2017-09-22T07:12:41.644Z,130
2017-09-22T07:13:40.963Z,130
2017-09-22T07:14:41.287Z,125
2017-09-22T07:15:40.943Z,125
2017-09-22T07:16:41.290Z,120
2017-09-22T07:17:40.606Z,120
2017-09-22T07:18:40.928Z,120
2017-09-22T07:19:41.256Z,115
2017-09-22T07:20:40.935Z,115
2017-09-22T07:21:40.905Z,115
2017-09-22T07:22:40.895Z,110
2017-09-22T07:23:40.900Z,110
2017-09-22T07:24:41.548Z,105
2017-09-22T07:25:41.195Z,105
2017-09-22T07:26:40.868Z,100
2017-09-22T07:27:40.874Z,100
2017-09-22T07:28:40.538Z,105
2017-09-22T07:29:41.175Z,105
2017-09-22T07:30:40.832Z,110
2017-09-22T07:31:41.164Z,110
2017-09-22T07:32:40.811Z,110
2017-09-22T07:33:40.479Z,110
2017-09-22T07:34:40.797Z,110
2017-09-22T07:35:40.829Z,110
2017-09-22T07:36:41.438Z,110
2017-09-22T07:37:41.135Z,110
2017-09-22T07:38:41.094Z,110
2017-09-22T07:39:40.777Z,110
2017-09-22T07:40:40.442Z,115
2017-09-22T07:41:40.414Z,110
2017-09-22T07:42:40.744Z,115
2017-09-22T07:43:41.400Z,115
2017-09-22T07:44:40.730Z,120
2017-09-22T07:45:41.388Z,125
2017-09-22T07:46:40.721Z,135
2017-09-22T07:47:40.701Z,135
2017-09-22T07:48:40.362Z,140
2017-09-22T07:49:40.682Z,140
2017-09-22T07:50:40.696Z,140
2017-09-22T07:51:41.010Z,140
2017-09-22T07:52:40.372Z,140
2017-09-22T07:53:40.325Z,135
2017-09-22T07:54:40.672Z,130
2017-09-22T07:55:40.962Z,125
2017-09-22T07:56:40.665Z,120
2017-09-22T07:57:40.946Z,115
2017-09-22T07:58:40.646Z,110
2017-09-22T07:59:40.606Z,110
2017-09-22T08:00:40.603Z,110
2017-09-22T08:01:41.253Z,110
2017-09-22T08:02:40.584Z,110
2017-09-22T08:03:41.229Z,110
2017-09-22T08:04:40.916Z,110
2017-09-22T08:05:40.581Z,110
2017-09-22T08:06:40.577Z,110
2017-09-22T08:07:40.543Z,110
2017-09-22T08:08:40.570Z,105
2017-09-22T08:09:40.878Z,100
2017-09-22T08:10:40.900Z,95
2017-09-22T08:11:40.526Z,90
2017-09-22T08:12:40.539Z,90
2017-09-22T08:13:40.498Z,90
2017-09-22T08:14:40.821Z,90
2017-09-22T08:15:40.504Z,85
2017-09-22T08:16:40.483Z,85
2017-09-22T08:17:40.480Z,85
2017-09-22T08:18:40.461Z,85
2017-09-22T08:19:40.781Z,85
2017-09-22T08:20:40.467Z,85
2017-09-22T08:21:41.095Z,85
2017-09-22T08:22:40.441Z,85
2017-09-22T08:23:41.095Z,85
2017-09-22T08:24:40.439Z,80
2017-09-22T08:25:40.098Z,85
2017-09-22T08:26:41.078Z,85
2017-09-22T08:27:40.098Z,85
2017-09-22T08:28:40.396Z,85
2017-09-22T08:29:40.399Z,90
2017-09-22T08:30:40.388Z,85
2017-09-22T08:31:40.692Z,85
2017-09-22T08:32:40.383Z,85
2017-09-22T08:33:40.362Z,90
2017-09-22T08:34:40.373Z,95
2017-09-22T08:35:40.034Z,95
2017-09-22T08:36:40.011Z,95
2017-09-22T08:37:40.675Z,95
2017-09-22T08:38:40.646Z,95
2017-09-22T08:39:40.667Z,90
2017-09-22T08:40:40.188Z,85
2017-09-22T08:41:40.625Z,80
2017-09-22T08:42:40.302Z,75
2017-09-22T08:43:40.298Z,70
2017-09-22T08:44:40.289Z,65
2017-09-22T08:45:40.294Z,60
2017-09-22T08:46:40.940Z,55
2017-09-22T08:47:40.276Z,50
2017-09-22T08:48:41.230Z,50
2017-09-22T08:49:39.909Z,45
2017-09-22T08:50:39.922Z,45
2017-09-22T08:51:40.883Z,45
2017-09-22T08:52:39.911Z,50
2017-09-22T08:53:40.529Z,50
2017-09-22T08:54:40.534Z,50
2017-09-22T08:55:39.868Z,50
2017-09-22T08:56:39.897Z,50
2017-09-22T08:57:40.559Z,55
2017-09-22T08:58:39.910Z,55
2017-09-22T08:59:40.167Z,60
2017-09-22T09:00:40.207Z,60
2017-09-22T09:01:40.163Z,65
2017-09-22T09:02:40.145Z,65
2017-09-22T09:03:39.804Z,65
2017-09-22T09:04:40.453Z,70
2017-09-22T09:05:39.826Z,75
2017-09-22T09:06:41.107Z,75
2017-09-22T09:07:40.105Z,75
2017-09-22T09:08:40.093Z,75
2017-09-22T09:09:39.759Z,80
2017-09-22T09:10:40.464Z,80
2017-09-22T09:11:40.406Z,80
2017-09-22T09:12:39.738Z,80
2017-09-22T09:13:40.748Z,85
2017-09-22T09:14:40.073Z,85
2017-09-22T09:15:40.369Z,85
2017-09-22T09:16:40.039Z,90
2017-09-22T09:17:40.682Z,100
2017-09-22T09:18:40.045Z,105
2017-09-22T09:19:40.335Z,110
2017-09-22T09:20:40.336Z,120
2017-09-22T09:21:39.994Z,125
2017-09-22T09:22:39.664Z,130
2017-09-22T09:23:39.985Z,130
2017-09-22T09:24:39.991Z,130
2017-09-22T09:25:40.308Z,135
2017-09-22T09:26:39.961Z,140
2017-09-22T09:27:40.275Z,140
2017-09-22T09:28:39.946Z,135
2017-09-22T09:29:40.284Z,135
2017-09-22T09:30:39.942Z,140
2017-09-22T09:31:40.247Z,140
2017-09-22T09:32:40.266Z,145
2017-09-22T09:33:39.927Z,140
2017-09-22T09:34:39.933Z,145
2017-09-22T09:35:39.563Z,145
2017-09-22T09:36:40.204Z,145
2017-09-22T09:37:39.887Z,145
2017-09-22T09:38:40.199Z,150
2017-09-22T09:39:39.876Z,150
2017-09-22T09:40:40.180Z,145
2017-09-22T09:41:39.852Z,150
2017-09-22T09:42:39.519Z,155
2017-09-22T09:43:39.831Z,160
2017-09-22T09:44:39.841Z,165
2017-09-22T09:45:39.818Z,165
2017-09-22T09:46:40.167Z,165
2017-09-22T09:47:39.821Z,165
2017-09-22T09:48:39.797Z,165
2017-09-22T09:49:39.787Z,165
2017-09-22T09:50:40.479Z,160
2017-09-22T09:51:40.446Z,160
2017-09-22T09:52:39.766Z,160
2017-09-22T09:53:39.761Z,165
2017-09-22T09:54:39.754Z,175
2017-09-22T09:55:39.415Z,185
2017-09-22T09:56:40.074Z,190
2017-09-22T09:57:40.393Z,195
2017-09-22T09:58:40.054Z,200
2017-09-22T09:59:40.091Z,200
2017-09-22T10:00:39.711Z,205
2017-09-22T10:01:39.712Z,205
2017-09-22T10:02:40.021Z,210
2017-09-22T10:03:40.022Z,210
2017-09-22T10:04:39.706Z,205
2017-09-22T10:05:39.367Z,215
2017-09-22T10:06:40.324Z,210
2017-09-22T10:07:39.662Z,210
2017-09-22T10:08:39.480Z,210
2017-09-22T10:09:39.661Z,215
2017-09-22T10:10:39.312Z,215
2017-09-22T10:11:40.336Z,220
2017-09-22T10:12:40.296Z,230
2017-09-22T10:13:39.291Z,240
2017-09-22T10:14:39.949Z,250
2017-09-22T10:15:39.997Z,255
2017-09-22T10:16:39.611Z,260
2017-09-22T10:17:39.592Z,265
2017-09-22T10:18:40.249Z,270
2017-09-22T10:19:39.585Z,270
2017-09-22T10:20:39.904Z,275
2017-09-22T10:21:39.241Z,280
2017-09-22T10:22:39.250Z,285
2017-09-22T10:23:39.889Z,295
2017-09-22T10:24:40.205Z,300
2017-09-22T10:25:39.901Z,300
2017-09-22T10:26:39.569Z,310
2017-09-22T10:27:39.570Z,310
2017-09-22T10:28:39.215Z,305
2017-09-22T10:29:39.516Z,305
2017-09-22T10:30:40.200Z,310
2017-09-22T10:31:39.542Z,310
2017-09-22T10:32:39.173Z,310
2017-09-22T10:33:39.494Z,315
2017-09-22T10:34:39.501Z,315
2017-09-22T10:35:39.486Z,320
2017-09-22T10:36:39.476Z,325
2017-09-22T10:37:40.139Z,335
2017-09-22T10:38:39.474Z,345
2017-09-22T10:39:40.145Z,370
2017-09-22T10:40:39.810Z,395
2017-09-22T10:41:39.827Z,415
2017-09-22T10:42:39.476Z,420
2017-09-22T10:43:39.762Z,420
2017-09-22T10:44:39.122Z,415
2017-09-22T10:45:39.100Z,410
2017-09-22T10:46:39.461Z,420
2017-09-22T10:47:39.436Z,430
2017-09-22T10:48:40.068Z,440
2017-09-22T10:49:39.778Z,445
2017-09-22T10:50:39.070Z,430
2017-09-22T10:51:39.073Z,410
2017-09-22T10:52:39.747Z,405
2017-09-22T10:53:39.401Z,410
2017-09-22T10:54:40.049Z,405
2017-09-22T10:55:39.094Z,410
2017-09-22T10:56:39.410Z,425
2017-09-22T10:57:39.702Z,435
2017-09-22T10:58:39.078Z,425
2017-09-22T10:59:39.031Z,415
2017-09-22T11:00:39.680Z,420
2017-09-22T11:01:39.022Z,435
2017-09-22T11:02:39.347Z,450
2017-09-22T11:03:39.713Z,445
2017-09-22T11:04:39.987Z,425
2017-09-22T11:05:39.011Z,410
2017-09-22T11:06:39.654Z,405
2017-09-22T11:07:39.653Z,415
2017-09-22T11:08:38.986Z,425
2017-09-22T11:09:39.669Z,420
2017-09-22T11:10:39.651Z,400
2017-09-22T11:11:39.303Z,390
2017-09-22T11:12:39.322Z,380
2017-09-22T11:13:39.959Z,375
2017-09-22T11:14:39.309Z,350
2017-09-22T11:15:39.623Z,330
2017-09-22T11:16:39.629Z,330
2017-09-22T11:17:38.968Z,330
2017-09-22T11:18:39.270Z,320
2017-09-22T11:19:38.996Z,305
2017-09-22T11:20:39.656Z,295
2017-09-22T11:21:39.604Z,300
2017-09-22T11:22:38.966Z,310
2017-09-22T11:23:39.281Z,305
2017-09-22T11:24:38.923Z,290
2017-09-22T11:25:38.919Z,270
2017-09-22T11:26:39.241Z,265
2017-09-22T11:27:39.244Z,265
2017-09-22T11:28:39.265Z,265
2017-09-22T11:29:39.255Z,270
2017-09-22T11:30:39.572Z,275
2017-09-22T11:31:38.902Z,275
2017-09-22T11:32:39.231Z,280
2017-09-22T11:33:39.913Z,295
2017-09-22T11:34:39.212Z,305
2017-09-22T11:35:38.893Z,290
2017-09-22T11:36:38.875Z,280
2017-09-22T11:37:38.878Z,275
2017-09-22T11:38:39.199Z,270
2017-09-22T11:39:39.204Z,270
2017-09-22T11:40:39.533Z,275
2017-09-22T11:41:39.903Z,285
2017-09-22T11:42:38.851Z,290
2017-09-22T11:43:38.840Z,295
2017-09-22T11:44:38.858Z,300
2017-09-22T11:45:39.182Z,300
2017-09-22T11:46:39.840Z,295
2017-09-22T11:47:39.482Z,295
2017-09-22T11:48:39.831Z,295
2017-09-22T11:49:38.835Z,295
2017-09-22T11:50:39.144Z,285
2017-09-22T11:51:39.798Z,275
2017-09-22T11:52:39.456Z,270
2017-09-22T11:53:39.154Z,270
2017-09-22T11:54:39.451Z,265
2017-09-22T11:55:39.448Z,260
2017-09-22T11:56:39.134Z,255
2017-09-22T11:57:39.787Z,260
2017-09-22T11:58:39.112Z,280
2017-09-22T11:59:39.116Z,290
2017-09-22T12:00:38.778Z,295
2017-09-22T12:01:39.115Z,290
2017-09-22T12:02:39.118Z,285
2017-09-22T12:03:39.422Z,275
2017-09-22T12:04:39.457Z,275
2017-09-22T12:05:38.767Z,275
2017-09-22T12:06:39.413Z,285
2017-09-22T12:07:38.741Z,300
2017-09-22T12:08:39.426Z,320
2017-09-22T12:09:39.398Z,335
2017-09-22T12:10:39.403Z,345
2017-09-22T12:11:39.079Z,350
2017-09-22T12:12:38.751Z,345
2017-09-22T12:13:39.371Z,350
2017-09-22T12:14:38.760Z,350
2017-09-22T12:15:38.709Z,350
2017-09-22T12:16:39.034Z,350
2017-09-22T12:17:39.712Z,355
2017-09-22T12:18:39.372Z,355
2017-09-22T12:19:39.681Z,360
2017-09-22T12:20:39.356Z,355
2017-09-22T12:21:38.693Z,350
2017-09-22T12:22:38.685Z,355
2017-09-22T12:23:39.667Z,355
2017-09-22T12:24:38.711Z,350
2017-09-22T12:25:38.668Z,335
2017-09-22T12:26:39.317Z,325
2017-09-22T12:27:39.321Z,315
2017-09-22T12:28:38.996Z,315
2017-09-22T12:29:38.657Z,320
2017-09-22T12:30:38.977Z,320
2017-09-22T12:31:38.979Z,320
2017-09-22T12:32:39.300Z,315
2017-09-22T12:33:39.624Z,310
2017-09-22T12:34:38.963Z,300
2017-09-22T12:35:38.641Z,290
2017-09-22T12:36:38.647Z,295
2017-09-22T12:37:39.290Z,295
2017-09-22T12:38:38.620Z,295
2017-09-22T12:39:39.294Z,295
2017-09-22T12:40:38.937Z,300
2017-09-22T12:41:38.933Z,305
2017-09-22T12:42:38.931Z,300
2017-09-22T12:43:38.929Z,300
2017-09-22T12:44:38.934Z,300
2017-09-22T12:45:38.927Z,305
2017-09-22T12:46:38.587Z,305
2017-09-22T12:47:39.577Z,305
2017-09-22T12:48:39.239Z,305
2017-09-22T12:49:38.616Z,305
2017-09-22T12:50:39.581Z,295
2017-09-22T12:51:38.900Z,290
2017-09-22T12:52:39.253Z,280
2017-09-22T12:53:38.560Z,275
2017-09-22T12:54:38.557Z,275
2017-09-22T12:55:38.891Z,275
2017-09-22T12:56:39.205Z,275
2017-09-22T12:57:38.561Z,275
2017-09-22T12:58:38.558Z,280
2017-09-22T12:59:38.895Z,280
2017-09-22T13:00:38.873Z,275
2017-09-22T13:01:38.876Z,275
2017-09-22T13:02:38.538Z,280
2017-09-22T13:03:38.877Z,285
2017-09-22T13:04:39.186Z,290
2017-09-22T13:05:39.191Z,295
2017-09-22T13:06:38.505Z,300
2017-09-22T13:07:38.833Z,315
2017-09-22T13:08:39.501Z,315
2017-09-22T13:09:39.193Z,330
2017-09-22T13:10:39.158Z,315
2017-09-22T13:11:38.813Z,315
2017-09-22T13:12:39.146Z,310
2017-09-22T13:13:38.806Z,310
2017-09-22T13:14:38.825Z,310
2017-09-22T13:15:38.488Z,315
2017-09-22T13:16:38.801Z,310
2017-09-22T13:17:38.827Z,305
2017-09-22T13:18:38.786Z,315
2017-09-22T13:19:38.458Z,315
2017-09-22T13:20:39.148Z,305
2017-09-22T13:21:39.120Z,300
2017-09-22T13:22:38.776Z,305
2017-09-22T13:23:39.090Z,295
2017-09-22T13:24:38.778Z,285
2017-09-22T13:25:38.764Z,270
2017-09-22T13:26:39.096Z,260
2017-09-22T13:27:38.766Z,255
2017-09-22T13:28:38.783Z,240
2017-09-22T13:29:38.448Z,240
2017-09-22T13:30:38.740Z,230
2017-09-22T13:31:38.425Z,230
2017-09-22T13:32:38.751Z,225
2017-09-22T13:33:38.734Z,220
2017-09-22T13:34:38.726Z,225
2017-09-22T13:35:38.750Z,225
2017-09-22T13:36:39.054Z,220
2017-09-22T13:37:38.709Z,210
2017-09-22T13:38:38.384Z,210
2017-09-22T13:39:38.708Z,205
2017-09-22T13:40:38.380Z,205
2017-09-22T13:41:38.750Z,205
2017-09-22T13:42:39.038Z,200
2017-09-22T13:43:39.020Z,195
2017-09-22T13:44:39.040Z,180
2017-09-22T13:45:38.695Z,180
2017-09-22T13:46:39.363Z,175
2017-09-22T13:47:39.035Z,165
2017-09-22T13:48:39.053Z,160
2017-09-22T13:49:38.681Z,155
2017-09-22T13:50:39.663Z,145
2017-09-22T13:51:39.033Z,140
2017-09-22T13:52:38.660Z,135
2017-09-22T13:53:38.659Z,130
2017-09-22T13:54:38.643Z,130
2017-09-22T13:55:39.289Z,130
2017-09-22T13:56:38.352Z,130
2017-09-22T13:57:38.987Z,125
2017-09-22T13:58:38.314Z,125
2017-09-22T13:59:38.954Z,125
2017-09-22T14:00:38.333Z,120
2017-09-22T14:01:38.292Z,120
2017-09-22T14:02:38.815Z,120
2017-09-22T14:03:38.277Z,120
2017-09-22T14:04:38.611Z,125
2017-09-22T14:05:38.608Z,125
2017-09-22T14:06:38.591Z,130
2017-09-22T14:07:38.280Z,130
2017-09-22T14:08:39.249Z,140
2017-09-22T14:09:38.582Z,145
2017-09-22T14:10:38.571Z,150
2017-09-22T14:11:38.564Z,155